createdAt,value
2019-05-18T00:00:10.415Z,19.00
2019-05-18T00:02:38.987Z,18.37
2019-05-18T00:05:08.822Z,20.27
2019-05-18T00:07:37.454Z,18.80
2019-05-18T00:10:07.362Z,20.08
2019-05-18T00:12:35.954Z,20.23
2019-05-18T00:15:06.836Z,20.05
2019-05-18T00:17:35.420Z,19.92
2019-05-18T00:20:08.183Z,19.27
2019-05-18T00:22:36.961Z,21.30
2019-05-18T00:25:09.256Z,18.73
2019-05-18T00:27:37.770Z,19.77
2019-05-18T00:30:10.595Z,20.72
2019-05-18T00:32:39.083Z,21.15
2019-05-18T00:35:08.169Z,20.48
2019-05-18T00:37:36.645Z,20.80
2019-05-18T00:40:07.853Z,20.50
2019-05-18T00:42:36.388Z,20.02
2019-05-18T00:45:07.104Z,21.40
2019-05-18T00:47:41.255Z,21.02
2019-05-18T00:50:06.828Z,20.52
2019-05-18T00:52:35.410Z,20.12
2019-05-18T00:55:05.297Z,19.23
2019-05-18T00:57:33.745Z,21.95
2019-05-18T01:00:02.195Z,21.07
2019-05-18T01:02:30.714Z,20.90
2019-05-18T01:04:59.271Z,21.35
2019-05-18T01:07:27.717Z,21.50
2019-05-18T01:09:56.250Z,20.15
2019-05-18T01:12:24.868Z,20.35
2019-05-18T01:14:53.324Z,21.60
2019-05-18T01:17:21.904Z,21.48
2019-05-18T01:19:50.798Z,21.05
2019-05-18T01:22:19.393Z,20.97
2019-05-18T01:24:47.968Z,22.07
2019-05-18T01:27:16.495Z,20.30
2019-05-18T01:29:45.028Z,20.23
2019-05-18T01:32:13.599Z,20.92
2019-05-18T01:34:42.126Z,20.62
2019-05-18T01:37:10.727Z,22.07
2019-05-18T01:39:39.254Z,20.92
2019-05-18T01:42:07.774Z,21.85
2019-05-18T01:44:36.399Z,20.90
2019-05-18T01:47:04.982Z,21.90
2019-05-18T01:49:33.511Z,22.22
2019-05-18T01:52:02.034Z,21.15
2019-05-18T01:54:30.533Z,21.97
2019-05-18T01:56:59.054Z,21.52
2019-05-18T01:59:27.588Z,21.35
2019-05-18T02:01:56.171Z,23.00
2019-05-18T02:04:24.756Z,23.50
2019-05-18T02:06:53.389Z,24.70
2019-05-18T02:09:21.903Z,23.77
2019-05-18T02:11:50.559Z,24.10
2019-05-18T02:14:19.079Z,22.98
2019-05-18T02:16:47.590Z,24.05
2019-05-18T02:19:16.248Z,22.55
2019-05-18T02:21:44.764Z,22.27
2019-05-18T02:24:13.291Z,22.10
2019-05-18T02:26:41.798Z,23.10
2019-05-18T02:29:10.323Z,24.00
2019-05-18T02:31:38.834Z,23.90
2019-05-18T02:34:07.421Z,25.02
2019-05-18T02:36:36.002Z,24.43
2019-05-18T02:39:06.967Z,23.87
2019-05-18T02:41:35.626Z,25.08
2019-05-18T02:44:04.619Z,24.00
2019-05-18T02:46:33.135Z,25.15
2019-05-18T02:49:01.644Z,24.27
2019-05-18T02:51:30.233Z,25.17
2019-05-18T02:53:58.747Z,25.90
2019-05-18T02:56:27.260Z,24.30
2019-05-18T02:58:55.774Z,25.02
2019-05-18T03:01:24.225Z,24.10
2019-05-18T03:03:52.763Z,24.23
2019-05-18T03:06:21.527Z,24.72
2019-05-18T03:08:50.221Z,24.27
2019-05-18T03:11:18.669Z,24.57
2019-05-18T03:13:47.181Z,26.45
2019-05-18T03:16:15.774Z,24.92
2019-05-18T03:18:44.482Z,25.25
2019-05-18T03:21:13.253Z,25.95
2019-05-18T03:23:41.943Z,25.70
2019-05-18T03:26:10.385Z,26.73
2019-05-18T03:28:38.896Z,26.17
2019-05-18T03:31:07.522Z,27.35
2019-05-18T03:33:36.106Z,25.27
2019-05-18T03:36:04.752Z,26.37
2019-05-18T03:38:33.163Z,24.72
2019-05-18T03:41:01.719Z,25.72
2019-05-18T03:43:30.208Z,26.23
2019-05-18T03:45:58.691Z,26.15
2019-05-18T03:48:27.219Z,24.63
2019-05-18T03:50:55.693Z,26.02
2019-05-18T03:53:24.204Z,25.08
2019-05-18T03:55:52.655Z,25.23
2019-05-18T03:58:21.191Z,25.85
2019-05-18T04:00:49.639Z,24.07
2019-05-18T04:03:18.115Z,25.43
2019-05-18T04:05:46.627Z,25.43
2019-05-18T04:08:15.198Z,25.25
2019-05-18T04:10:43.667Z,25.92
2019-05-18T04:13:12.309Z,24.65
2019-05-18T04:15:40.749Z,24.92
2019-05-18T04:18:09.303Z,25.65
2019-05-18T04:20:37.900Z,24.45
2019-05-18T04:23:06.447Z,24.80
2019-05-18T04:25:34.990Z,24.30
2019-05-18T04:28:03.521Z,25.17
2019-05-18T04:30:32.047Z,25.02
2019-05-18T04:33:00.731Z,24.72
2019-05-18T04:35:29.280Z,24.77
2019-05-18T04:37:57.871Z,24.07
2019-05-18T04:40:26.668Z,23.77
2019-05-18T04:42:55.142Z,24.57
2019-05-18T04:45:23.848Z,22.93
2019-05-18T04:47:52.416Z,24.82
2019-05-18T04:50:21.016Z,25.55
2019-05-18T04:52:49.501Z,25.25
2019-05-18T04:55:18.052Z,23.60
2019-05-18T04:57:46.521Z,24.50
2019-05-18T05:00:15.157Z,24.07
2019-05-18T05:02:43.670Z,22.95
2019-05-18T05:05:12.256Z,24.72
2019-05-18T05:07:40.732Z,22.77
2019-05-18T05:10:09.419Z,21.45
2019-05-18T05:12:37.872Z,23.02
2019-05-18T05:15:06.797Z,20.50
2019-05-18T05:17:35.244Z,20.68
2019-05-18T05:20:18.634Z,21.02
2019-05-18T05:22:35.741Z,20.48
2019-05-18T05:25:04.488Z,20.57
2019-05-18T05:27:32.933Z,20.45
2019-05-18T05:30:01.486Z,20.57
2019-05-18T05:32:29.976Z,20.43
2019-05-18T05:34:58.495Z,21.93
2019-05-18T05:37:26.946Z,21.25
2019-05-18T05:39:55.493Z,20.92
2019-05-18T05:42:23.936Z,20.55
2019-05-18T05:44:52.486Z,20.23
2019-05-18T05:47:21.019Z,21.23
2019-05-18T05:49:49.491Z,21.80
2019-05-18T05:52:17.940Z,21.05
2019-05-18T05:54:46.537Z,19.85
2019-05-18T05:57:15.001Z,20.02
2019-05-18T05:59:43.454Z,21.10
2019-05-18T06:02:12.068Z,21.05
2019-05-18T06:04:40.594Z,20.55
2019-05-18T06:07:09.117Z,19.52
2019-05-18T06:09:37.660Z,20.05
2019-05-18T06:12:06.194Z,18.60
2019-05-18T06:14:34.760Z,18.82
2019-05-18T06:17:03.303Z,18.55
2019-05-18T06:19:31.760Z,18.70
2019-05-18T06:22:00.304Z,18.27
2019-05-18T06:24:28.788Z,18.70
2019-05-18T06:26:57.505Z,19.77
2019-05-18T06:29:26.061Z,19.55
2019-05-18T06:31:54.594Z,18.12
2019-05-18T06:34:23.152Z,18.50
2019-05-18T06:36:51.879Z,18.00
2019-05-18T06:39:20.315Z,18.40
2019-05-18T06:41:48.865Z,18.15
2019-05-18T06:44:17.538Z,18.73
2019-05-18T06:46:46.080Z,18.12
2019-05-18T06:49:14.606Z,17.67
2019-05-18T06:51:43.130Z,18.30
2019-05-18T06:54:11.748Z,17.05
2019-05-18T06:56:40.706Z,17.20
2019-05-18T06:59:10.287Z,17.60
2019-05-18T07:01:38.887Z,17.37
2019-05-18T07:04:07.499Z,17.00
2019-05-18T07:06:36.067Z,17.35
2019-05-18T07:09:12.939Z,16.30
2019-05-18T07:11:37.398Z,15.28
2019-05-18T07:14:06.001Z,16.93
2019-05-18T07:16:34.589Z,16.80
2019-05-18T07:19:03.203Z,15.83
2019-05-18T07:21:31.726Z,16.65
2019-05-18T07:24:00.248Z,17.85
2019-05-18T07:26:28.696Z,16.77
2019-05-18T07:28:57.292Z,16.23
2019-05-18T07:31:25.834Z,15.60
2019-05-18T07:33:54.355Z,16.52
2019-05-18T07:36:22.876Z,17.62
2019-05-18T07:38:51.333Z,15.58
2019-05-18T07:41:19.788Z,16.95
2019-05-18T07:43:48.461Z,15.93
2019-05-18T07:46:16.983Z,17.48
2019-05-18T07:48:45.593Z,16.35
2019-05-18T07:51:14.209Z,16.45
2019-05-18T07:53:42.727Z,16.62
2019-05-18T07:56:11.261Z,15.60
2019-05-18T07:58:39.699Z,15.70
2019-05-18T08:01:08.289Z,14.90
2019-05-18T08:03:36.897Z,15.60
2019-05-18T08:06:05.491Z,13.90
2019-05-18T08:08:34.008Z,13.98
2019-05-18T08:11:02.534Z,13.68
2019-05-18T08:13:31.142Z,12.15
2019-05-18T08:15:59.677Z,12.45
2019-05-18T08:18:28.215Z,12.53
2019-05-18T08:20:56.700Z,13.32
2019-05-18T08:23:25.255Z,12.85
2019-05-18T08:25:53.949Z,12.58
2019-05-18T08:28:22.647Z,13.08
2019-05-18T08:30:51.166Z,11.18
2019-05-18T08:33:19.690Z,11.15
2019-05-18T08:35:48.207Z,12.43
2019-05-18T08:38:16.755Z,12.75
2019-05-18T08:40:45.344Z,12.28
2019-05-18T08:43:13.958Z,11.80
2019-05-18T08:45:42.556Z,12.60
2019-05-18T08:48:11.084Z,12.43
2019-05-18T08:50:39.586Z,9.75
2019-05-18T08:53:08.109Z,10.35
2019-05-18T08:55:36.700Z,9.83
2019-05-18T08:58:05.216Z,7.60
2019-05-18T09:00:33.886Z,9.20
2019-05-18T09:03:02.512Z,7.45
2019-05-18T09:05:31.086Z,6.10
2019-05-18T09:07:59.545Z,8.98
2019-05-18T09:10:28.164Z,8.40
2019-05-18T09:12:56.801Z,9.75
2019-05-18T09:15:25.490Z,9.05
2019-05-18T09:17:53.951Z,10.60
2019-05-18T09:20:22.646Z,7.08
2019-05-18T09:22:51.381Z,6.67
2019-05-18T09:25:20.139Z,6.95
2019-05-18T09:27:48.691Z,7.10
2019-05-18T09:30:17.506Z,6.90
2019-05-18T09:32:46.050Z,3.67
2019-05-18T09:35:15.086Z,3.95
2019-05-18T09:37:43.665Z,4.28
2019-05-18T09:40:14.050Z,4.70
2019-05-18T09:42:42.657Z,5.15
2019-05-18T09:45:12.339Z,5.95
2019-05-18T09:47:40.957Z,6.20
2019-05-18T09:50:09.734Z,6.33
2019-05-18T09:52:46.374Z,7.15
2019-05-18T09:55:09.195Z,6.83
2019-05-18T09:57:37.813Z,6.95
2019-05-18T10:00:11.226Z,6.97
2019-05-18T10:02:40.095Z,7.00
2019-05-18T10:05:08.902Z,7.00
2019-05-18T10:07:37.487Z,7.37
2019-05-18T10:10:07.810Z,7.42
2019-05-18T10:12:36.479Z,7.67
2019-05-18T10:15:07.283Z,7.97
2019-05-18T10:17:35.798Z,7.85
2019-05-18T10:20:07.568Z,7.78
2019-05-18T10:22:36.105Z,8.25
2019-05-18T10:25:07.280Z,7.80
2019-05-18T10:27:35.758Z,7.58
2019-05-18T10:30:09.025Z,7.97
2019-05-18T10:32:37.814Z,7.65
2019-05-18T10:35:08.112Z,7.87
2019-05-18T10:37:36.688Z,7.40
2019-05-18T10:40:07.688Z,7.47
2019-05-18T10:42:36.274Z,7.53
2019-05-18T10:45:06.296Z,7.20
2019-05-18T10:47:34.876Z,7.10
2019-05-18T10:50:03.580Z,6.50
2019-05-18T10:52:32.058Z,6.80
2019-05-18T10:55:00.607Z,6.62
2019-05-18T10:57:29.132Z,5.87
2019-05-18T10:59:57.740Z,7.10
2019-05-18T11:02:26.323Z,6.90
2019-05-18T11:04:54.958Z,5.92
2019-05-18T11:07:23.615Z,6.30
2019-05-18T11:09:52.182Z,5.72
2019-05-18T11:12:20.767Z,6.10
2019-05-18T11:14:49.385Z,5.62
2019-05-18T11:17:17.900Z,5.33
2019-05-18T11:19:46.526Z,5.35
2019-05-18T11:22:15.052Z,6.42
2019-05-18T11:24:43.675Z,5.33
2019-05-18T11:27:12.273Z,5.62
2019-05-18T11:29:40.870Z,6.75
2019-05-18T11:32:09.529Z,5.92
2019-05-18T11:34:38.225Z,5.67
2019-05-18T11:37:06.839Z,5.20
2019-05-18T11:39:35.359Z,5.17
2019-05-18T11:42:03.872Z,5.40
2019-05-18T11:44:32.464Z,4.53
2019-05-18T11:47:01.165Z,4.67
2019-05-18T11:49:29.703Z,4.45
2019-05-18T11:51:58.289Z,4.40
2019-05-18T11:54:26.826Z,5.08
2019-05-18T11:56:55.456Z,4.70
2019-05-18T11:59:23.894Z,4.70
2019-05-18T12:01:52.585Z,4.40
2019-05-18T12:04:21.273Z,5.08
2019-05-18T12:06:49.823Z,4.70
2019-05-18T12:09:18.268Z,4.87
2019-05-18T12:11:46.818Z,4.37
2019-05-18T12:14:15.335Z,4.70
2019-05-18T12:16:44.054Z,4.40
2019-05-18T12:19:12.631Z,4.20
2019-05-18T12:21:41.222Z,4.28
2019-05-18T12:24:15.432Z,4.10
2019-05-18T12:26:40.125Z,5.37
2019-05-18T12:29:08.738Z,5.05
2019-05-18T12:31:37.337Z,4.60
2019-05-18T12:34:05.927Z,4.35
2019-05-18T12:36:34.511Z,4.40
2019-05-18T12:39:03.913Z,4.40
2019-05-18T12:41:32.409Z,4.40
2019-05-18T12:44:00.948Z,4.55
2019-05-18T12:46:29.475Z,4.15
2019-05-18T12:48:58.052Z,4.55
2019-05-18T12:51:26.586Z,4.53
2019-05-18T12:53:55.093Z,4.12
2019-05-18T12:56:23.708Z,5.28
2019-05-18T12:58:52.263Z,4.50
2019-05-18T13:01:20.971Z,4.55
2019-05-18T13:03:49.547Z,4.40
2019-05-18T13:06:18.166Z,4.78
2019-05-18T13:08:46.695Z,4.37
2019-05-18T13:11:15.360Z,5.10
2019-05-18T13:13:43.807Z,4.95
2019-05-18T13:16:12.378Z,4.45
2019-05-18T13:18:40.958Z,4.30
2019-05-18T13:21:09.571Z,5.10
2019-05-18T13:23:38.081Z,5.05
2019-05-18T13:26:06.666Z,4.67
2019-05-18T13:28:35.118Z,5.20
2019-05-18T13:31:03.789Z,4.60
2019-05-18T13:33:32.395Z,4.30
2019-05-18T13:36:00.917Z,4.47
2019-05-18T13:38:29.394Z,4.30
2019-05-18T13:40:57.979Z,4.37
2019-05-18T13:43:26.627Z,4.40
2019-05-18T13:45:55.140Z,4.55
2019-05-18T13:48:23.721Z,4.87
2019-05-18T13:50:52.296Z,4.58
2019-05-18T13:53:20.962Z,4.50
2019-05-18T13:55:49.571Z,4.40
2019-05-18T13:58:18.101Z,4.83
2019-05-18T14:00:46.740Z,4.47
2019-05-18T14:03:15.335Z,4.60
2019-05-18T14:05:43.958Z,4.62
2019-05-18T14:08:15.819Z,4.20
2019-05-18T14:10:43.846Z,4.40
2019-05-18T14:13:12.707Z,4.20
2019-05-18T14:15:41.407Z,4.53
2019-05-18T14:18:10.118Z,4.30
2019-05-18T14:20:38.672Z,5.25
2019-05-18T14:23:07.285Z,4.97
2019-05-18T14:25:36.069Z,4.58
2019-05-18T14:28:04.769Z,4.40
2019-05-18T14:30:33.350Z,4.25
2019-05-18T14:33:02.011Z,4.53
2019-05-18T14:35:33.456Z,4.70
2019-05-18T14:38:01.091Z,4.62
2019-05-18T14:40:29.887Z,4.00
2019-05-18T14:42:58.779Z,4.92
2019-05-18T14:45:27.672Z,4.58
2019-05-18T14:47:57.123Z,4.60
2019-05-18T14:50:26.253Z,3.92
2019-05-18T14:52:55.050Z,4.30
2019-05-18T14:55:33.260Z,4.75
2019-05-18T14:57:55.748Z,4.42
2019-05-18T15:00:24.890Z,4.47
2019-05-18T15:02:53.900Z,4.50
2019-05-18T15:05:23.786Z,4.30
2019-05-18T15:07:53.142Z,4.75
2019-05-18T15:10:21.992Z,4.40
2019-05-18T15:12:50.994Z,4.22
2019-05-18T15:15:21.213Z,4.15
2019-05-18T15:17:49.835Z,4.50
2019-05-18T15:20:19.376Z,4.62
2019-05-18T15:22:48.383Z,4.25
2019-05-18T15:25:17.621Z,4.10
2019-05-18T15:27:46.279Z,4.17
2019-05-18T15:30:15.995Z,4.53
2019-05-18T15:32:44.852Z,4.10
2019-05-18T15:35:14.451Z,4.83
2019-05-18T15:37:43.836Z,4.62
2019-05-18T15:40:13.152Z,4.20
2019-05-18T15:42:41.654Z,6.08
2019-05-18T15:45:10.907Z,6.00
2019-05-18T15:47:39.947Z,5.60
2019-05-18T15:50:08.736Z,5.30
2019-05-18T15:52:37.814Z,5.37
2019-05-18T15:55:08.402Z,6.00
2019-05-18T15:57:37.343Z,5.05
2019-05-18T16:00:08.202Z,5.08
2019-05-18T16:02:36.713Z,4.87
2019-05-18T16:05:05.867Z,5.70
2019-05-18T16:07:34.550Z,5.08
2019-05-18T16:10:03.187Z,5.47
2019-05-18T16:12:31.861Z,5.58
2019-05-18T16:15:00.807Z,5.67
2019-05-18T16:17:39.017Z,6.58
2019-05-18T16:19:59.800Z,5.47
2019-05-18T16:22:28.589Z,5.12
2019-05-18T16:24:57.159Z,5.20
2019-05-18T16:27:25.764Z,5.25
2019-05-18T16:29:54.567Z,5.08
2019-05-18T16:32:23.804Z,6.85
2019-05-18T16:34:52.534Z,6.35
2019-05-18T16:37:21.056Z,5.00
2019-05-18T16:39:49.891Z,5.10
2019-05-18T16:42:18.793Z,12.98
2019-05-18T16:44:47.375Z,9.15
2019-05-18T16:47:15.981Z,15.32
2019-05-18T16:49:44.689Z,8.98
2019-05-18T16:52:13.283Z,6.60
2019-05-18T16:54:41.909Z,6.10
2019-05-18T16:57:10.566Z,6.00
2019-05-18T16:59:39.199Z,6.90
2019-05-18T17:02:07.994Z,6.80
2019-05-18T17:04:36.867Z,11.97
2019-05-18T17:07:05.456Z,22.27
2019-05-18T17:09:34.046Z,9.73
2019-05-18T17:12:02.861Z,9.45
2019-05-18T17:14:31.564Z,9.18
2019-05-18T17:17:00.126Z,9.30
2019-05-18T17:19:28.839Z,8.10
2019-05-18T17:21:57.764Z,8.03
2019-05-18T17:24:26.441Z,9.93
2019-05-18T17:26:55.887Z,11.53
2019-05-18T17:29:24.971Z,15.45
2019-05-18T17:31:53.845Z,13.00
2019-05-18T17:34:23.221Z,11.75
2019-05-18T17:36:53.013Z,7.05
2019-05-18T17:39:23.081Z,7.53
2019-05-18T17:41:53.021Z,8.50
2019-05-18T17:44:22.218Z,8.83
2019-05-18T17:46:51.420Z,9.75
2019-05-18T17:49:26.896Z,9.00
2019-05-18T17:51:51.404Z,9.38
2019-05-18T17:54:20.995Z,8.90
2019-05-18T17:56:49.827Z,9.60
2019-05-18T17:59:18.957Z,9.48
2019-05-18T18:01:47.783Z,10.30
2019-05-18T18:04:17.535Z,10.68
2019-05-18T18:06:46.867Z,9.25
2019-05-18T18:09:16.598Z,8.73
2019-05-18T18:11:46.972Z,8.38
2019-05-18T18:14:16.953Z,8.78
2019-05-18T18:16:46.919Z,8.85
2019-05-18T18:19:16.759Z,8.10
2019-05-18T18:21:46.577Z,8.43
2019-05-18T18:24:16.645Z,9.05
2019-05-18T18:26:45.533Z,8.58
2019-05-18T18:29:14.824Z,9.18
2019-05-18T18:31:43.808Z,9.50
2019-05-18T18:34:12.783Z,10.00
2019-05-18T18:36:41.812Z,11.30
2019-05-18T18:39:11.845Z,12.40
2019-05-18T18:41:41.660Z,11.90
2019-05-18T18:44:10.898Z,12.33
2019-05-18T18:46:39.690Z,12.00
2019-05-18T18:49:09.847Z,13.05
2019-05-18T18:51:39.882Z,13.55
2019-05-18T18:54:12.673Z,12.47
2019-05-18T18:56:41.829Z,13.95
2019-05-18T18:59:11.795Z,13.30
2019-05-18T19:01:41.921Z,14.18
2019-05-18T19:04:11.748Z,13.03
2019-05-18T19:06:41.304Z,13.20
2019-05-18T19:09:11.451Z,13.45
2019-05-18T19:11:42.408Z,13.95
2019-05-18T19:14:12.539Z,13.98
2019-05-18T19:16:43.588Z,14.13
2019-05-18T19:19:12.911Z,13.40
2019-05-18T19:21:42.432Z,13.15
2019-05-18T19:24:12.300Z,12.45
2019-05-18T19:26:42.071Z,12.05
2019-05-18T19:29:12.937Z,12.88
2019-05-18T19:31:43.436Z,12.43
2019-05-18T19:34:13.548Z,11.97
2019-05-18T19:36:43.591Z,11.80
2019-05-18T19:39:13.517Z,11.95
2019-05-18T19:41:43.972Z,12.18
2019-05-18T19:44:14.375Z,11.73
2019-05-18T19:46:43.864Z,11.12
2019-05-18T19:49:14.670Z,11.55
2019-05-18T19:51:45.211Z,11.45
2019-05-18T19:54:15.704Z,11.15
2019-05-18T19:56:46.169Z,10.82
2019-05-18T19:59:16.980Z,10.98
2019-05-18T20:01:47.490Z,9.80
2019-05-18T20:05:11.469Z,9.33
2019-05-18T20:07:41.663Z,9.03
2019-05-18T20:10:12.925Z,9.38
2019-05-18T20:12:43.575Z,9.40
2019-05-18T20:15:14.626Z,9.73
2019-05-18T20:17:45.439Z,9.45
2019-05-18T20:20:16.079Z,10.53
2019-05-18T20:22:47.136Z,10.60
2019-05-18T20:29:52.689Z,13.10
2019-05-18T20:32:23.407Z,16.12
2019-05-18T20:34:53.911Z,21.87
2019-05-18T20:37:24.262Z,18.80
2019-05-18T20:39:55.386Z,15.60
2019-05-18T20:42:25.612Z,13.70
2019-05-18T20:44:55.644Z,13.05
2019-05-18T20:47:25.675Z,12.30
2019-05-18T20:50:31.289Z,10.40
2019-05-18T20:53:01.563Z,9.38
2019-05-18T20:55:31.351Z,10.63
2019-05-18T20:58:00.557Z,10.40
2019-05-18T21:00:29.397Z,10.45
2019-05-18T21:02:58.273Z,10.20
2019-05-18T21:05:27.075Z,9.40
2019-05-18T21:07:56.040Z,9.68
2019-05-18T21:10:24.840Z,10.20
2019-05-18T21:12:53.362Z,9.70
2019-05-18T21:15:22.416Z,9.23
2019-05-18T21:17:51.019Z,8.78
2019-05-18T21:20:19.710Z,9.40
2019-05-18T21:22:48.308Z,9.03
2019-05-18T21:25:17.050Z,8.98
2019-05-18T21:27:46.050Z,9.10
2019-05-18T21:30:15.047Z,9.83
2019-05-18T21:32:43.901Z,9.03
2019-05-18T21:35:12.846Z,9.48
2019-05-18T21:37:41.827Z,9.10
2019-05-18T21:40:10.746Z,10.38
2019-05-18T21:42:39.264Z,9.58
2019-05-18T21:45:08.855Z,9.53
2019-05-18T21:47:37.370Z,9.30
2019-05-18T21:50:08.075Z,9.95
2019-05-18T21:52:36.737Z,9.40
2019-05-18T21:55:06.987Z,8.40
2019-05-18T21:57:35.536Z,8.38
2019-05-18T22:00:05.325Z,8.10
2019-05-18T22:02:33.905Z,7.60
2019-05-18T22:05:02.580Z,7.58
2019-05-18T22:07:31.163Z,7.90
2019-05-18T22:09:59.644Z,8.98
2019-05-18T22:12:28.224Z,7.80
2019-05-18T22:14:56.834Z,8.18
2019-05-18T22:17:25.348Z,7.83
2019-05-18T22:19:54.225Z,8.18
2019-05-18T22:22:22.710Z,12.07
2019-05-18T22:24:51.392Z,12.35
2019-05-18T22:27:19.855Z,13.95
2019-05-18T22:29:48.376Z,13.03
2019-05-18T22:32:16.929Z,13.55
2019-05-18T22:34:45.575Z,13.55
2019-05-18T22:37:14.245Z,12.33
2019-05-18T22:39:42.694Z,13.25
2019-05-18T22:42:11.330Z,13.30
2019-05-18T22:44:39.847Z,13.95
2019-05-18T22:47:08.388Z,14.23
2019-05-18T22:49:36.835Z,15.05
2019-05-18T22:52:05.447Z,14.23
2019-05-18T22:54:34.177Z,14.58
2019-05-18T22:57:02.727Z,15.35
2019-05-18T22:59:31.176Z,14.38
2019-05-18T23:01:59.764Z,15.55
2019-05-18T23:04:28.304Z,15.45
2019-05-18T23:06:56.832Z,15.13
2019-05-18T23:09:25.325Z,15.55
2019-05-18T23:11:53.872Z,14.63
2019-05-18T23:14:22.325Z,16.65
2019-05-18T23:16:50.973Z,16.32
2019-05-18T23:19:19.450Z,17.50
2019-05-18T23:21:48.064Z,17.25
2019-05-18T23:24:16.643Z,17.25
2019-05-18T23:26:45.123Z,17.60
2019-05-18T23:29:13.749Z,16.27
2019-05-18T23:31:42.366Z,16.90
2019-05-18T23:34:10.897Z,17.10
2019-05-18T23:36:39.368Z,16.67
2019-05-18T23:39:07.989Z,16.30
2019-05-18T23:41:36.511Z,15.90
2019-05-18T23:44:05.127Z,16.35
2019-05-18T23:46:33.650Z,17.45
2019-05-18T23:49:10.366Z,16.65
2019-05-18T23:51:32.476Z,17.82
2019-05-18T23:54:00.921Z,19.10
2019-05-18T23:56:29.528Z,18.55
2019-05-18T23:58:57.976Z,21.00
